sensor_id;sensor_type;location;lat;lon;timestamp;pressure;altitude;pressure_sealevel;temperature;humidity
59337;BME280;45115;52.002;4.686;2024-01-06T00:02:06;100629.19;;;5.15;89.52
59337;BME280;45115;52.002;4.686;2024-01-06T00:04:33;100632.00;;;5.01;89.42
59337;BME280;45115;52.002;4.686;2024-01-06T00:07:01;100638.81;;;4.99;89.51
59337;BME280;45115;52.002;4.686;2024-01-06T00:09:28;100633.75;;;4.97;89.07
59337;BME280;45115;52.002;4.686;2024-01-06T00:11:54;100640.56;;;4.97;89.13
59337;BME280;45115;52.002;4.686;2024-01-06T00:14:21;100637.19;;;4.95;89.75
59337;BME280;45115;52.002;4.686;2024-01-06T00:16:48;100635.69;;;4.86;90.07
59337;BME280;45115;52.002;4.686;2024-01-06T00:19:14;100642.13;;;5.04;89.55
59337;BME280;45115;52.002;4.686;2024-01-06T00:21:42;100645.78;;;4.91;90.02
59337;BME280;45115;52.002;4.686;2024-01-06T00:24:11;100641.47;;;4.93;89.77
59337;BME280;45115;52.002;4.686;2024-01-06T00:26:37;100648.94;;;5.02;89.24
59337;BME280;45115;52.002;4.686;2024-01-06T00:29:04;100647.47;;;4.92;89.85
59337;BME280;45115;52.002;4.686;2024-01-06T00:31:30;100649.22;;;4.88;90.66
59337;BME280;45115;52.002;4.686;2024-01-06T00:33:57;100646.66;;;4.90;89.39
59337;BME280;45115;52.002;4.686;2024-01-06T00:36:24;100645.91;;;4.85;89.79
59337;BME280;45115;52.002;4.686;2024-01-06T00:38:50;100653.56;;;4.83;89.49
59337;BME280;45115;52.002;4.686;2024-01-06T00:41:18;100652.50;;;4.93;88.53
59337;BME280;45115;52.002;4.686;2024-01-06T00:43:45;100644.97;;;4.89;89.01
59337;BME280;45115;52.002;4.686;2024-01-06T00:46:12;100654.19;;;4.93;89.52
59337;BME280;45115;52.002;4.686;2024-01-06T00:48:38;100656.88;;;4.87;89.44
59337;BME280;45115;52.002;4.686;2024-01-06T00:51:05;100663.41;;;4.98;88.89
59337;BME280;45115;52.002;4.686;2024-01-06T00:53:32;100667.75;;;4.93;88.94
59337;BME280;45115;52.002;4.686;2024-01-06T00:55:59;100669.31;;;5.00;89.22
59337;BME280;45115;52.002;4.686;2024-01-06T00:58:27;100672.88;;;4.92;88.96
59337;BME280;45115;52.002;4.686;2024-01-06T01:00:53;100677.00;;;4.97;87.98
59337;BME280;45115;52.002;4.686;2024-01-06T01:03:20;100680.38;;;4.98;88.21
59337;BME280;45115;52.002;4.686;2024-01-06T01:05:46;100677.03;;;4.96;88.82
59337;BME280;45115;52.002;4.686;2024-01-06T01:08:13;100672.09;;;4.88;88.47
59337;BME280;45115;52.002;4.686;2024-01-06T01:10:41;100681.50;;;4.85;88.38
59337;BME280;45115;52.002;4.686;2024-01-06T01:13:07;100698.41;;;4.87;88.19
59337;BME280;45115;52.002;4.686;2024-01-06T01:15:35;100694.84;;;4.94;87.91
59337;BME280;45115;52.002;4.686;2024-01-06T01:18:02;100696.69;;;4.88;87.54
59337;BME280;45115;52.002;4.686;2024-01-06T01:20:29;100695.81;;;4.90;88.40
59337;BME280;45115;52.002;4.686;2024-01-06T01:22:56;100706.00;;;4.89;88.52
59337;BME280;45115;52.002;4.686;2024-01-06T01:25:23;100713.56;;;4.92;87.52
59337;BME280;45115;52.002;4.686;2024-01-06T01:27:49;100714.56;;;4.83;87.36
59337;BME280;45115;52.002;4.686;2024-01-06T01:30:16;100717.09;;;4.85;86.85
59337;BME280;45115;52.002;4.686;2024-01-06T01:32:44;100716.25;;;4.83;87.40
59337;BME280;45115;52.002;4.686;2024-01-06T01:35:11;100722.13;;;4.88;87.42
59337;BME280;45115;52.002;4.686;2024-01-06T01:37:37;100725.53;;;4.85;87.92
59337;BME280;45115;52.002;4.686;2024-01-06T01:40:05;100729.03;;;4.80;88.30
59337;BME280;45115;52.002;4.686;2024-01-06T01:42:31;100738.91;;;4.95;87.34
59337;BME280;45115;52.002;4.686;2024-01-06T01:44:57;100732.25;;;4.89;87.77
59337;BME280;45115;52.002;4.686;2024-01-06T01:47:24;100732.94;;;4.97;87.64
59337;BME280;45115;52.002;4.686;2024-01-06T01:49:53;100733.91;;;4.92;88.60
59337;BME280;45115;52.002;4.686;2024-01-06T01:52:20;100738.16;;;4.91;88.25
59337;BME280;45115;52.002;4.686;2024-01-06T01:54:47;100742.41;;;4.91;87.63
59337;BME280;45115;52.002;4.686;2024-01-06T01:57:15;100749.31;;;4.83;88.71
59337;BME280;45115;52.002;4.686;2024-01-06T01:59:42;100749.22;;;4.89;87.75
59337;BME280;45115;52.002;4.686;2024-01-06T02:02:09;100747.50;;;4.91;87.71
59337;BME280;45115;52.002;4.686;2024-01-06T02:04:36;100754.28;;;4.90;87.19
59337;BME280;45115;52.002;4.686;2024-01-06T02:07:04;100760.31;;;4.85;87.41
59337;BME280;45115;52.002;4.686;2024-01-06T02:09:31;100761.19;;;4.82;87.79
59337;BME280;45115;52.002;4.686;2024-01-06T02:11:57;100757.03;;;4.78;88.00
59337;BME280;45115;52.002;4.686;2024-01-06T02:14:24;100761.13;;;4.85;87.41
59337;BME280;45115;52.002;4.686;2024-01-06T02:16:51;100761.31;;;4.74;87.29
59337;BME280;45115;52.002;4.686;2024-01-06T02:19:18;100762.13;;;4.76;87.23
59337;BME280;45115;52.002;4.686;2024-01-06T02:21:49;100770.56;;;4.79;87.37
59337;BME280;45115;52.002;4.686;2024-01-06T02:24:15;100779.19;;;4.68;87.23
59337;BME280;45115;52.002;4.686;2024-01-06T02:26:42;100777.53;;;4.67;86.19
59337;BME280;45115;52.002;4.686;2024-01-06T02:29:09;100779.50;;;4.50;87.20
59337;BME280;45115;52.002;4.686;2024-01-06T02:31:35;100791.22;;;4.60;87.09
59337;BME280;45115;52.002;4.686;2024-01-06T02:34:02;100793.78;;;4.57;86.91
59337;BME280;45115;52.002;4.686;2024-01-06T02:36:29;100799.63;;;4.64;87.43
59337;BME280;45115;52.002;4.686;2024-01-06T02:38:57;100798.00;;;4.58;87.74
59337;BME280;45115;52.002;4.686;2024-01-06T02:41:23;100809.22;;;4.45;88.24
59337;BME280;45115;52.002;4.686;2024-01-06T02:43:50;100803.28;;;4.45;88.32
59337;BME280;45115;52.002;4.686;2024-01-06T02:46:17;100808.41;;;4.41;87.66
59337;BME280;45115;52.002;4.686;2024-01-06T02:48:43;100808.31;;;4.49;87.48
59337;BME280;45115;52.002;4.686;2024-01-06T02:51:11;100815.13;;;4.46;87.34
59337;BME280;45115;52.002;4.686;2024-01-06T02:53:38;100817.69;;;4.44;87.16
59337;BME280;45115;52.002;4.686;2024-01-06T02:56:09;100815.28;;;4.36;88.16
59337;BME280;45115;52.002;4.686;2024-01-06T02:58:36;100828.69;;;4.46;87.33
59337;BME280;45115;52.002;4.686;2024-01-06T03:01:03;100825.38;;;4.39;87.64
59337;BME280;45115;52.002;4.686;2024-01-06T03:03:30;100823.66;;;4.41;87.24
59337;BME280;45115;52.002;4.686;2024-01-06T03:05:56;100832.13;;;4.42;88.42
59337;BME280;45115;52.002;4.686;2024-01-06T03:08:23;100839.72;;;4.43;87.34
59337;BME280;45115;52.002;4.686;2024-01-06T03:10:49;100831.38;;;4.35;88.02
59337;BME280;45115;52.002;4.686;2024-01-06T03:13:17;100837.31;;;4.36;87.86
59337;BME280;45115;52.002;4.686;2024-01-06T03:15:44;100844.69;;;4.51;87.29
59337;BME280;45115;52.002;4.686;2024-01-06T03:18:11;100841.44;;;4.41;87.81
59337;BME280;45115;52.002;4.686;2024-01-06T03:20:38;100842.38;;;4.36;87.98
59337;BME280;45115;52.002;4.686;2024-01-06T03:23:04;100843.19;;;4.38;87.74
59337;BME280;45115;52.002;4.686;2024-01-06T03:25:31;100849.06;;;4.41;87.26
59337;BME280;45115;52.002;4.686;2024-01-06T03:27:57;100848.09;;;4.50;86.90
59337;BME280;45115;52.002;4.686;2024-01-06T03:30:25;100854.13;;;4.43;87.34
59337;BME280;45115;52.002;4.686;2024-01-06T03:32:52;100855.75;;;4.47;85.55
59337;BME280;45115;52.002;4.686;2024-01-06T03:35:19;100864.31;;;4.41;86.23
59337;BME280;45115;52.002;4.686;2024-01-06T03:37:45;100865.16;;;4.42;86.24
59337;BME280;45115;52.002;4.686;2024-01-06T03:40:12;100870.28;;;4.39;87.25
59337;BME280;45115;52.002;4.686;2024-01-06T03:42:39;100867.72;;;4.39;87.01
59337;BME280;45115;52.002;4.686;2024-01-06T03:45:06;100876.19;;;4.39;87.48
59337;BME280;45115;52.002;4.686;2024-01-06T03:47:34;100879.63;;;4.37;88.43
59337;BME280;45115;52.002;4.686;2024-01-06T03:50:01;100880.56;;;4.30;88.26
59337;BME280;45115;52.002;4.686;2024-01-06T03:52:28;100887.34;;;4.31;88.93
59337;BME280;45115;52.002;4.686;2024-01-06T03:54:55;100882.97;;;4.39;89.00
59337;BME280;45115;52.002;4.686;2024-01-06T03:57:21;100891.50;;;4.36;89.03
59337;BME280;45115;52.002;4.686;2024-01-06T03:59:48;100883.97;;;4.29;88.97
59337;BME280;45115;52.002;4.686;2024-01-06T04:02:15;100897.50;;;4.29;88.89
59337;BME280;45115;52.002;4.686;2024-01-06T04:04:43;100898.41;;;4.24;89.18
59337;BME280;45115;52.002;4.686;2024-01-06T04:07:09;100897.59;;;4.23;88.11
59337;BME280;45115;52.002;4.686;2024-01-06T04:09:36;100902.59;;;4.28;86.81
59337;BME280;45115;52.002;4.686;2024-01-06T04:12:03;100904.16;;;4.38;86.69
59337;BME280;45115;52.002;4.686;2024-01-06T04:14:30;100902.59;;;4.28;87.46
59337;BME280;45115;52.002;4.686;2024-01-06T04:16:56;100907.69;;;4.28;86.61
59337;BME280;45115;52.002;4.686;2024-01-06T04:19:23;100916.84;;;4.38;85.96
59337;BME280;45115;52.002;4.686;2024-01-06T04:21:51;100922.75;;;4.40;85.50
59337;BME280;45115;52.002;4.686;2024-01-06T04:24:18;100916.97;;;4.30;85.65
59337;BME280;45115;52.002;4.686;2024-01-06T04:26:44;100920.44;;;4.25;86.30
59337;BME280;45115;52.002;4.686;2024-01-06T04:29:11;100921.22;;;4.30;86.48
59337;BME280;45115;52.002;4.686;2024-01-06T04:31:38;100922.91;;;4.31;86.55
59337;BME280;45115;52.002;4.686;2024-01-06T04:34:04;100928.78;;;4.34;86.68
59337;BME280;45115;52.002;4.686;2024-01-06T04:36:31;100922.88;;;4.34;86.85
59337;BME280;45115;52.002;4.686;2024-01-06T04:38:59;100935.59;;;4.32;87.46
59337;BME280;45115;52.002;4.686;2024-01-06T04:41:26;100930.63;;;4.22;88.26
59337;BME280;45115;52.002;4.686;2024-01-06T04:43:53;100932.38;;;4.17;88.42
59337;BME280;45115;52.002;4.686;2024-01-06T04:46:19;100934.03;;;4.19;88.35
59337;BME280;45115;52.002;4.686;2024-01-06T04:48:47;100928.16;;;4.13;89.17
59337;BME280;45115;52.002;4.686;2024-01-06T04:51:13;100929.94;;;4.09;89.01
59337;BME280;45115;52.002;4.686;2024-01-06T04:53:41;100934.09;;;4.12;88.86
59337;BME280;45115;52.002;4.686;2024-01-06T04:56:09;100944.06;;;4.31;87.89
59337;BME280;45115;52.002;4.686;2024-01-06T04:58:35;100939.94;;;4.20;88.17
59337;BME280;45115;52.002;4.686;2024-01-06T05:01:02;100945.03;;;4.20;88.14
59337;BME280;45115;52.002;4.686;2024-01-06T05:03:29;100943.31;;;4.23;88.69
59337;BME280;45115;52.002;4.686;2024-01-06T05:05:56;100947.63;;;4.15;88.45
59337;BME280;45115;52.002;4.686;2024-01-06T05:08:23;100942.66;;;4.06;88.68
59337;BME280;45115;52.002;4.686;2024-01-06T05:10:51;100955.38;;;4.04;89.39
59337;BME280;45115;52.002;4.686;2024-01-06T05:13:20;100962.13;;;4.05;88.49
59337;BME280;45115;52.002;4.686;2024-01-06T05:15:47;100962.13;;;4.05;88.99
59337;BME280;45115;52.002;4.686;2024-01-06T05:18:13;100964.69;;;4.04;89.44
59337;BME280;45115;52.002;4.686;2024-01-06T05:20:40;100974.00;;;4.03;89.82
59337;BME280;45115;52.002;4.686;2024-01-06T05:23:07;100975.66;;;4.07;89.38
59337;BME280;45115;52.002;4.686;2024-01-06T05:25:34;100972.16;;;4.15;90.13
59337;BME280;45115;52.002;4.686;2024-01-06T05:28:00;100975.56;;;4.14;90.03
59337;BME280;45115;52.002;4.686;2024-01-06T05:30:28;100979.03;;;4.10;89.57
59337;BME280;45115;52.002;4.686;2024-01-06T05:32:55;100973.84;;;4.17;90.28
59337;BME280;45115;52.002;4.686;2024-01-06T05:35:22;100977.38;;;4.05;90.09
59337;BME280;45115;52.002;4.686;2024-01-06T05:37:49;100982.44;;;4.05;90.31
59337;BME280;45115;52.002;4.686;2024-01-06T05:40:15;100979.91;;;4.05;90.14
59337;BME280;45115;52.002;4.686;2024-01-06T05:42:42;100986.69;;;4.03;90.53
59337;BME280;45115;52.002;4.686;2024-01-06T05:45:10;100989.13;;;4.11;89.62
59337;BME280;45115;52.002;4.686;2024-01-06T05:47:39;100989.25;;;4.00;89.16
59337;BME280;45115;52.002;4.686;2024-01-06T05:50:07;101001.06;;;4.06;88.81
59337;BME280;45115;52.002;4.686;2024-01-06T05:52:35;101005.31;;;4.04;87.26
59337;BME280;45115;52.002;4.686;2024-01-06T05:55:02;101000.25;;;4.02;87.30
59337;BME280;45115;52.002;4.686;2024-01-06T05:57:29;101006.19;;;4.01;86.41
59337;BME280;45115;52.002;4.686;2024-01-06T05:59:56;101013.78;;;4.03;85.81
59337;BME280;45115;52.002;4.686;2024-01-06T06:02:22;101021.38;;;4.07;85.88
59337;BME280;45115;52.002;4.686;2024-01-06T06:04:51;101017.91;;;4.12;86.02
59337;BME280;45115;52.002;4.686;2024-01-06T06:07:18;101020.41;;;4.18;85.72
59337;BME280;45115;52.002;4.686;2024-01-06T06:09:44;101023.81;;;4.14;85.49
59337;BME280;45115;52.002;4.686;2024-01-06T06:12:12;101039.13;;;4.09;85.60
59337;BME280;45115;52.002;4.686;2024-01-06T06:14:39;101038.22;;;4.12;85.62
59337;BME280;45115;52.002;4.686;2024-01-06T06:17:05;101048.47;;;4.05;86.22
59337;BME280;45115;52.002;4.686;2024-01-06T06:19:32;101049.22;;;4.12;86.65
59337;BME280;45115;52.002;4.686;2024-01-06T06:22:00;101056.06;;;4.07;87.76
59337;BME280;45115;52.002;4.686;2024-01-06T06:24:27;101055.16;;;4.11;87.08
59337;BME280;45115;52.002;4.686;2024-01-06T06:26:53;101053.56;;;4.05;86.97
59337;BME280;45115;52.002;4.686;2024-01-06T06:29:20;101061.16;;;4.05;87.02
59337;BME280;45115;52.002;4.686;2024-01-06T06:31:47;101065.44;;;4.00;86.90
59337;BME280;45115;52.002;4.686;2024-01-06T06:34:14;101068.00;;;3.99;87.21
59337;BME280;45115;52.002;4.686;2024-01-06T06:36:40;101062.03;;;4.01;86.48
59337;BME280;45115;52.002;4.686;2024-01-06T06:39:08;101069.69;;;3.98;87.42
59337;BME280;45115;52.002;4.686;2024-01-06T06:41:35;101074.72;;;4.04;86.75
59337;BME280;45115;52.002;4.686;2024-01-06T06:44:02;101079.84;;;3.98;87.16
59337;BME280;45115;52.002;4.686;2024-01-06T06:46:29;101090.91;;;3.91;87.74
59337;BME280;45115;52.002;4.686;2024-01-06T06:48:56;101095.06;;;3.98;88.00
59337;BME280;45115;52.002;4.686;2024-01-06T06:51:23;101095.06;;;4.01;87.84
59337;BME280;45115;52.002;4.686;2024-01-06T06:53:52;101101.88;;;3.93;88.21
59337;BME280;45115;52.002;4.686;2024-01-06T06:56:20;101104.44;;;3.89;89.08
59337;BME280;45115;52.002;4.686;2024-01-06T06:58:47;101106.94;;;3.96;89.00
59337;BME280;45115;52.002;4.686;2024-01-06T07:01:14;101106.94;;;3.98;88.91
59337;BME280;45115;52.002;4.686;2024-01-06T07:03:41;101115.44;;;3.91;88.89
59337;BME280;45115;52.002;4.686;2024-01-06T07:06:08;101112.88;;;3.95;89.17
59337;BME280;45115;52.002;4.686;2024-01-06T07:08:34;101121.38;;;3.91;89.59
59337;BME280;45115;52.002;4.686;2024-01-06T07:11:04;101126.47;;;3.84;89.80
59337;BME280;45115;52.002;4.686;2024-01-06T07:13:32;101140.91;;;3.80;89.53
59337;BME280;45115;52.002;4.686;2024-01-06T07:15:59;101145.19;;;3.72;89.68
59337;BME280;45115;52.002;4.686;2024-01-06T07:18:25;101140.94;;;3.76;89.85
59337;BME280;45115;52.002;4.686;2024-01-06T07:20:52;101151.94;;;3.79;90.07
59337;BME280;45115;52.002;4.686;2024-01-06T07:23:18;101151.94;;;3.79;90.50
59337;BME280;45115;52.002;4.686;2024-01-06T07:25:45;101160.38;;;3.78;90.12
59337;BME280;45115;52.002;4.686;2024-01-06T07:28:12;101165.47;;;3.80;90.07
59337;BME280;45115;52.002;4.686;2024-01-06T07:30:39;101165.50;;;3.70;90.27
59337;BME280;45115;52.002;4.686;2024-01-06T07:33:06;101177.34;;;3.68;90.48
59337;BME280;45115;52.002;4.686;2024-01-06T07:35:33;101177.38;;;3.65;90.11
59337;BME280;45115;52.002;4.686;2024-01-06T07:38:00;101178.22;;;3.67;90.75
59337;BME280;45115;52.002;4.686;2024-01-06T07:40:27;101179.03;;;3.69;89.50
59337;BME280;45115;52.002;4.686;2024-01-06T07:42:53;101179.91;;;3.68;88.53
59337;BME280;45115;52.002;4.686;2024-01-06T07:45:20;101191.75;;;3.65;89.44
59337;BME280;45115;52.002;4.686;2024-01-06T07:47:48;101198.50;;;3.73;88.63
59337;BME280;45115;52.002;4.686;2024-01-06T07:50:15;101198.50;;;3.69;88.56
59337;BME280;45115;52.002;4.686;2024-01-06T07:52:42;101206.13;;;3.66;88.76
59337;BME280;45115;52.002;4.686;2024-01-06T07:55:08;101204.41;;;3.74;88.85
59337;BME280;45115;52.002;4.686;2024-01-06T07:57:35;101211.19;;;3.72;88.81
59337;BME280;45115;52.002;4.686;2024-01-06T08:00:02;101212.03;;;3.74;88.25
59337;BME280;45115;52.002;4.686;2024-01-06T08:02:37;101214.47;;;3.85;86.94
59337;BME280;45115;52.002;4.686;2024-01-06T08:05:06;101219.59;;;3.80;87.18
59337;BME280;45115;52.002;4.686;2024-01-06T08:07:33;101225.53;;;3.78;87.94
59337;BME280;45115;52.002;4.686;2024-01-06T08:09:59;101226.38;;;3.78;87.31
59337;BME280;45115;52.002;4.686;2024-01-06T08:12:26;101230.59;;;3.81;86.80
59337;BME280;45115;52.002;4.686;2024-01-06T08:14:53;101246.63;;;3.84;87.07
59337;BME280;45115;52.002;4.686;2024-01-06T08:17:19;101242.41;;;3.83;87.35
59337;BME280;45115;52.002;4.686;2024-01-06T08:19:46;101244.09;;;3.87;86.89
59337;BME280;45115;52.002;4.686;2024-01-06T08:22:14;101242.41;;;3.88;87.13
59337;BME280;45115;52.002;4.686;2024-01-06T08:24:41;101246.63;;;3.90;87.29
59337;BME280;45115;52.002;4.686;2024-01-06T08:27:07;101252.56;;;3.86;86.51
59337;BME280;45115;52.002;4.686;2024-01-06T08:29:34;101253.38;;;3.91;86.83
59337;BME280;45115;52.002;4.686;2024-01-06T08:32:01;101262.69;;;3.92;86.93
59337;BME280;45115;52.002;4.686;2024-01-06T08:34:28;101266.09;;;3.84;87.70
59337;BME280;45115;52.002;4.686;2024-01-06T08:36:54;101265.25;;;3.86;87.50
59337;BME280;45115;52.002;4.686;2024-01-06T08:39:22;101273.69;;;3.88;87.07
59337;BME280;45115;52.002;4.686;2024-01-06T08:41:50;101271.97;;;3.96;86.87
59337;BME280;45115;52.002;4.686;2024-01-06T08:44:17;101271.13;;;3.97;86.98
59337;BME280;45115;52.002;4.686;2024-01-06T08:46:43;101282.13;;;4.02;87.50
59337;BME280;45115;52.002;4.686;2024-01-06T08:49:10;101272.81;;;4.01;87.38
59337;BME280;45115;52.002;4.686;2024-01-06T08:51:37;101278.72;;;4.03;87.63
59337;BME280;45115;52.002;4.686;2024-01-06T08:54:04;101271.09;;;4.05;87.26
59337;BME280;45115;52.002;4.686;2024-01-06T08:56:33;101283.81;;;3.97;87.81
59337;BME280;45115;52.002;4.686;2024-01-06T08:59:00;101294.81;;;4.01;86.94
59337;BME280;45115;52.002;4.686;2024-01-06T09:01:27;101298.16;;;4.07;86.15
59337;BME280;45115;52.002;4.686;2024-01-06T09:03:53;101304.88;;;4.13;85.90
59337;BME280;45115;52.002;4.686;2024-01-06T09:06:20;101303.22;;;4.11;86.28
59337;BME280;45115;52.002;4.686;2024-01-06T09:08:47;101306.56;;;4.14;86.28
59337;BME280;45115;52.002;4.686;2024-01-06T09:11:25;101308.28;;;4.11;86.34
59337;BME280;45115;52.002;4.686;2024-01-06T09:17:21;101318.44;;;4.11;85.90
59337;BME280;45115;52.002;4.686;2024-01-06T09:19:48;101319.34;;;4.08;85.65
59337;BME280;45115;52.002;4.686;2024-01-06T09:22:15;101322.72;;;4.05;85.08
59337;BME280;45115;52.002;4.686;2024-01-06T09:24:42;101330.38;;;3.96;85.68
59337;BME280;45115;52.002;4.686;2024-01-06T09:27:09;101337.13;;;4.00;85.41
59337;BME280;45115;52.002;4.686;2024-01-06T09:29:36;101334.59;;;3.99;85.76
59337;BME280;45115;52.002;4.686;2024-01-06T09:32:03;101343.06;;;4.02;85.75
59337;BME280;45115;52.002;4.686;2024-01-06T09:34:32;101343.09;;;3.93;86.86
59337;BME280;45115;52.002;4.686;2024-01-06T09:36:58;101346.44;;;4.01;86.20
59337;BME280;45115;52.002;4.686;2024-01-06T09:39:25;101350.66;;;4.08;85.43
59337;BME280;45115;52.002;4.686;2024-01-06T09:41:52;101354.91;;;4.03;86.16
59337;BME280;45115;52.002;4.686;2024-01-06T09:44:19;101355.75;;;3.98;85.87
59337;BME280;45115;52.002;4.686;2024-01-06T09:46:45;101362.53;;;4.00;86.04
59337;BME280;45115;52.002;4.686;2024-01-06T09:49:13;101359.13;;;4.01;85.85
59337;BME280;45115;52.002;4.686;2024-01-06T09:51:42;101374.31;;;4.15;85.58
59337;BME280;45115;52.002;4.686;2024-01-06T09:54:09;101383.66;;;4.08;85.58
59337;BME280;45115;52.002;4.686;2024-01-06T09:56:39;101381.94;;;4.12;85.63
59337;BME280;45115;52.002;4.686;2024-01-06T09:59:20;101393.84;;;4.04;86.02
59337;BME280;45115;52.002;4.686;2024-01-06T10:01:47;101394.63;;;4.11;86.68
59337;BME280;45115;52.002;4.686;2024-01-06T10:04:14;101390.44;;;4.06;86.16
59337;BME280;45115;52.002;4.686;2024-01-06T10:06:43;101389.56;;;4.14;85.89
59337;BME280;45115;52.002;4.686;2024-01-06T10:09:10;101392.94;;;4.16;84.78
59337;BME280;45115;52.002;4.686;2024-01-06T10:11:37;101394.63;;;4.14;85.18
59337;BME280;45115;52.002;4.686;2024-01-06T10:14:06;101401.38;;;4.24;84.52
59337;BME280;45115;52.002;4.686;2024-01-06T10:16:36;101402.25;;;4.12;85.83
59337;BME280;45115;52.002;4.686;2024-01-06T10:19:03;101403.94;;;4.15;85.02
59337;BME280;45115;52.002;4.686;2024-01-06T10:21:31;101405.59;;;4.23;85.15
59337;BME280;45115;52.002;4.686;2024-01-06T10:24:00;101409.84;;;4.24;84.48
59337;BME280;45115;52.002;4.686;2024-01-06T10:26:26;101409.00;;;4.24;84.91
59337;BME280;45115;52.002;4.686;2024-01-06T10:28:55;101416.59;;;4.30;85.18
59337;BME280;45115;52.002;4.686;2024-01-06T10:31:22;101417.44;;;4.32;84.73
59337;BME280;45115;52.002;4.686;2024-01-06T10:33:48;101422.56;;;4.17;84.58
59337;BME280;45115;52.002;4.686;2024-01-06T10:36:16;101420.03;;;4.14;84.49
59337;BME280;45115;52.002;4.686;2024-01-06T10:38:44;101423.47;;;4.05;84.62
59337;BME280;45115;52.002;4.686;2024-01-06T10:41:12;101424.31;;;4.10;83.94
59337;BME280;45115;52.002;4.686;2024-01-06T10:43:42;101430.25;;;3.94;84.53
59337;BME280;45115;52.002;4.686;2024-01-06T10:46:22;101437.03;;;3.95;84.50
59337;BME280;45115;52.002;4.686;2024-01-06T10:48:51;101439.56;;;4.05;84.66
59337;BME280;45115;52.002;4.686;2024-01-06T10:51:19;101430.25;;;3.98;84.55
59337;BME280;45115;52.002;4.686;2024-01-06T10:53:48;101440.41;;;4.07;83.98
59337;BME280;45115;52.002;4.686;2024-01-06T10:56:18;101444.63;;;4.05;84.21
59337;BME280;45115;52.002;4.686;2024-01-06T10:58:46;101449.72;;;4.08;83.53
59337;BME280;45115;52.002;4.686;2024-01-06T11:01:15;101441.25;;;3.94;84.38
59337;BME280;45115;52.002;4.686;2024-01-06T11:03:47;101453.09;;;3.97;84.37
59337;BME280;45115;52.002;4.686;2024-01-06T11:06:17;101449.72;;;3.96;83.53
59337;BME280;45115;52.002;4.686;2024-01-06T11:08:49;101451.41;;;3.97;83.98
59337;BME280;45115;52.002;4.686;2024-01-06T11:11:19;101444.66;;;3.84;84.15
59337;BME280;45115;52.002;4.686;2024-01-06T11:13:46;101453.13;;;3.89;84.67
59337;BME280;45115;52.002;4.686;2024-01-06T11:16:40;101448.88;;;3.87;84.09
59337;BME280;45115;52.002;4.686;2024-01-06T11:19:42;101453.94;;;3.94;84.63
59337;BME280;45115;52.002;4.686;2024-01-06T11:22:19;101459.03;;;3.96;85.03
59337;BME280;45115;52.002;4.686;2024-01-06T11:24:47;101459.03;;;4.08;84.36
59337;BME280;45115;52.002;4.686;2024-01-06T11:27:18;101464.09;;;4.06;84.09
59337;BME280;45115;52.002;4.686;2024-01-06T11:29:46;101458.13;;;4.17;83.89
59337;BME280;45115;52.002;4.686;2024-01-06T11:32:17;101464.09;;;4.05;84.05
59337;BME280;45115;52.002;4.686;2024-01-06T11:34:48;101464.94;;;4.05;84.46
59337;BME280;45115;52.002;4.686;2024-01-06T11:37:17;101463.25;;;4.04;85.08
59337;BME280;45115;52.002;4.686;2024-01-06T11:39:45;101465.75;;;4.12;84.83
59337;BME280;45115;52.002;4.686;2024-01-06T11:42:11;101458.13;;;4.17;84.06
59337;BME280;45115;52.002;4.686;2024-01-06T11:44:43;101464.94;;;4.08;83.44
59337;BME280;45115;52.002;4.686;2024-01-06T11:47:11;101463.22;;;4.14;83.87
59337;BME280;45115;52.002;4.686;2024-01-06T11:49:38;101460.66;;;4.12;83.89
59337;BME280;45115;52.002;4.686;2024-01-06T11:52:05;101462.41;;;4.02;84.61
59337;BME280;45115;52.002;4.686;2024-01-06T11:54:32;101461.53;;;4.13;83.80
59337;BME280;45115;52.002;4.686;2024-01-06T11:56:59;101468.28;;;4.17;83.05
59337;BME280;45115;52.002;4.686;2024-01-06T11:59:26;101474.25;;;4.08;84.57
59337;BME280;45115;52.002;4.686;2024-01-06T12:01:54;101474.25;;;4.08;84.79
59337;BME280;45115;52.002;4.686;2024-01-06T12:04:21;101480.19;;;3.95;86.22
59337;BME280;45115;52.002;4.686;2024-01-06T12:06:51;101470.03;;;4.02;85.49
59337;BME280;45115;52.002;4.686;2024-01-06T12:09:17;101465.78;;;4.03;85.29
59337;BME280;45115;52.002;4.686;2024-01-06T12:11:45;101472.56;;;4.07;84.91
59337;BME280;45115;52.002;4.686;2024-01-06T12:14:12;101467.50;;;3.98;85.65
59337;BME280;45115;52.002;4.686;2024-01-06T12:16:39;101466.66;;;3.99;85.81
59337;BME280;45115;52.002;4.686;2024-01-06T12:19:07;101470.03;;;4.02;86.07
59337;BME280;45115;52.002;4.686;2024-01-06T12:21:34;101471.72;;;4.03;86.19
59337;BME280;45115;52.002;4.686;2024-01-06T12:24:14;101469.19;;;3.99;84.98
59337;BME280;45115;52.002;4.686;2024-01-06T12:26:44;101471.66;;;4.16;83.59
59337;BME280;45115;52.002;4.686;2024-01-06T12:29:11;101474.25;;;4.02;84.14
59337;BME280;45115;52.002;4.686;2024-01-06T12:31:38;101477.66;;;4.04;83.87
59337;BME280;45115;52.002;4.686;2024-01-06T12:34:07;101467.44;;;4.15;83.26
59337;BME280;45115;52.002;4.686;2024-01-06T12:36:34;101475.91;;;4.15;83.18
59337;BME280;45115;52.002;4.686;2024-01-06T12:39:02;101480.16;;;4.12;83.42
59337;BME280;45115;52.002;4.686;2024-01-06T12:41:29;101469.97;;;4.12;84.14
59337;BME280;45115;52.002;4.686;2024-01-06T12:44:01;101473.38;;;4.14;84.33
59337;BME280;45115;52.002;4.686;2024-01-06T12:46:29;101469.97;;;4.18;83.51
59337;BME280;45115;52.002;4.686;2024-01-06T12:48:56;101480.97;;;4.20;83.85
59337;BME280;45115;52.002;4.686;2024-01-06T12:51:24;101483.50;;;4.24;83.15
59337;BME280;45115;52.002;4.686;2024-01-06T12:53:51;101479.28;;;4.25;82.90
59337;BME280;45115;52.002;4.686;2024-01-06T12:56:18;101483.50;;;4.26;82.51
59337;BME280;45115;52.002;4.686;2024-01-06T12:58:45;101485.22;;;4.24;83.50
59337;BME280;45115;52.002;4.686;2024-01-06T13:01:12;101473.34;;;4.23;83.05
59337;BME280;45115;52.002;4.686;2024-01-06T13:03:41;101476.75;;;4.16;83.82
59337;BME280;45115;52.002;4.686;2024-01-06T13:06:09;101483.50;;;4.26;83.83